sensor_id;sensor_type;location;lat;lon;timestamp;temperature;humidity
10129;DHT22;5104;50.720;7.044;2022-11-14T00:00:33;3.10;99.90
10129;DHT22;5104;50.720;7.044;2022-11-14T00:03:00;3.20;99.90
10129;DHT22;5104;50.720;7.044;2022-11-14T00:05:27;3.10;99.90
10129;DHT22;5104;50.720;7.044;2022-11-14T00:07:56;3.10;99.90
10129;DHT22;5104;50.720;7.044;2022-11-14T00:10:23;3.10;99.90
10129;DHT22;5104;50.720;7.044;2022-11-14T00:12:50;3.10;99.90
10129;DHT22;5104;50.720;7.044;2022-11-14T00:15:18;3.20;99.90
10129;DHT22;5104;50.720;7.044;2022-11-14T00:17:44;3.20;99.90
10129;DHT22;5104;50.720;7.044;2022-11-14T00:20:12;3.10;99.90
10129;DHT22;5104;50.720;7.044;2022-11-14T00:22:39;3.10;99.90
10129;DHT22;5104;50.720;7.044;2022-11-14T00:25:08;3.10;99.90
10129;DHT22;5104;50.720;7.044;2022-11-14T00:27:35;3.10;99.90
10129;DHT22;5104;50.720;7.044;2022-11-14T00:30:02;3.10;99.90
10129;DHT22;5104;50.720;7.044;2022-11-14T00:32:30;3.10;99.90
10129;DHT22;5104;50.720;7.044;2022-11-14T00:34:57;3.10;99.90
10129;DHT22;5104;50.720;7.044;2022-11-14T00:37:24;3.10;99.90
10129;DHT22;5104;50.720;7.044;2022-11-14T00:39:51;3.10;99.90
10129;DHT22;5104;50.720;7.044;2022-11-14T00:42:20;3.00;99.90
10129;DHT22;5104;50.720;7.044;2022-11-14T00:44:46;2.90;99.90
10129;DHT22;5104;50.720;7.044;2022-11-14T00:47:13;2.90;99.90
10129;DHT22;5104;50.720;7.044;2022-11-14T00:49:40;2.90;99.90
10129;DHT22;5104;50.720;7.044;2022-11-14T00:52:07;2.80;99.90
10129;DHT22;5104;50.720;7.044;2022-11-14T00:54:35;2.80;99.90
10129;DHT22;5104;50.720;7.044;2022-11-14T00:57:02;2.90;99.90
10129;DHT22;5104;50.720;7.044;2022-11-14T00:59:30;2.90;99.90
10129;DHT22;5104;50.720;7.044;2022-11-14T01:01:57;2.90;99.90
10129;DHT22;5104;50.720;7.044;2022-11-14T01:04:24;2.90;99.90
10129;DHT22;5104;50.720;7.044;2022-11-14T01:06:50;2.90;99.90
10129;DHT22;5104;50.720;7.044;2022-11-14T01:09:17;2.90;99.90
10129;DHT22;5104;50.720;7.044;2022-11-14T01:11:44;2.90;99.90
10129;DHT22;5104;50.720;7.044;2022-11-14T01:14:11;2.90;99.90
10129;DHT22;5104;50.720;7.044;2022-11-14T01:16:39;3.00;99.90
10129;DHT22;5104;50.720;7.044;2022-11-14T01:19:06;2.90;99.90
10129;DHT22;5104;50.720;7.044;2022-11-14T01:21:33;2.90;99.90
10129;DHT22;5104;50.720;7.044;2022-11-14T01:24:00;3.00;99.90
10129;DHT22;5104;50.720;7.044;2022-11-14T01:26:27;2.80;99.90
10129;DHT22;5104;50.720;7.044;2022-11-14T01:28:54;2.80;99.90
10129;DHT22;5104;50.720;7.044;2022-11-14T01:31:23;2.80;99.90
10129;DHT22;5104;50.720;7.044;2022-11-14T01:33:52;2.80;99.90
10129;DHT22;5104;50.720;7.044;2022-11-14T01:36:20;2.80;99.90
10129;DHT22;5104;50.720;7.044;2022-11-14T01:38:51;2.70;99.90
10129;DHT22;5104;50.720;7.044;2022-11-14T01:41:18;2.80;99.90
10129;DHT22;5104;50.720;7.044;2022-11-14T01:43:45;2.80;99.90
10129;DHT22;5104;50.720;7.044;2022-11-14T01:46:14;2.70;99.90
10129;DHT22;5104;50.720;7.044;2022-11-14T01:48:44;2.70;99.90
10129;DHT22;5104;50.720;7.044;2022-11-14T01:51:19;2.70;99.90
10129;DHT22;5104;50.720;7.044;2022-11-14T01:53:49;2.70;99.90
10129;DHT22;5104;50.720;7.044;2022-11-14T01:56:23;2.70;99.90
10129;DHT22;5104;50.720;7.044;2022-11-14T01:58:54;2.70;99.90
10129;DHT22;5104;50.720;7.044;2022-11-14T02:01:22;2.70;99.90
10129;DHT22;5104;50.720;7.044;2022-11-14T02:03:53;2.80;99.90
10129;DHT22;5104;50.720;7.044;2022-11-14T02:06:26;2.70;99.90
10129;DHT22;5104;50.720;7.044;2022-11-14T02:08:54;2.70;99.90
10129;DHT22;5104;50.720;7.044;2022-11-14T02:11:22;2.70;99.90
10129;DHT22;5104;50.720;7.044;2022-11-14T02:13:50;2.70;99.90
10129;DHT22;5104;50.720;7.044;2022-11-14T02:16:17;2.70;99.90
10129;DHT22;5104;50.720;7.044;2022-11-14T02:18:44;2.70;99.90
10129;DHT22;5104;50.720;7.044;2022-11-14T02:21:12;2.70;99.90
10129;DHT22;5104;50.720;7.044;2022-11-14T02:23:39;2.70;99.90
10129;DHT22;5104;50.720;7.044;2022-11-14T02:26:06;2.70;99.90
10129;DHT22;5104;50.720;7.044;2022-11-14T02:28:32;2.70;99.90
10129;DHT22;5104;50.720;7.044;2022-11-14T02:30:59;2.60;99.90
10129;DHT22;5104;50.720;7.044;2022-11-14T02:33:26;2.60;99.90
10129;DHT22;5104;50.720;7.044;2022-11-14T02:35:53;2.50;99.90
10129;DHT22;5104;50.720;7.044;2022-11-14T02:38:21;2.50;99.90
10129;DHT22;5104;50.720;7.044;2022-11-14T02:40:48;2.50;99.90
10129;DHT22;5104;50.720;7.044;2022-11-14T02:43:15;2.50;99.90
10129;DHT22;5104;50.720;7.044;2022-11-14T02:45:42;2.50;99.90
10129;DHT22;5104;50.720;7.044;2022-11-14T02:48:08;2.50;99.90
10129;DHT22;5104;50.720;7.044;2022-11-14T02:50:35;2.50;99.90
10129;DHT22;5104;50.720;7.044;2022-11-14T02:53:02;2.50;99.90
10129;DHT22;5104;50.720;7.044;2022-11-14T02:55:31;2.50;99.90
10129;DHT22;5104;50.720;7.044;2022-11-14T02:57:58;2.50;99.90
10129;DHT22;5104;50.720;7.044;2022-11-14T03:00:25;2.50;99.90
10129;DHT22;5104;50.720;7.044;2022-11-14T03:02:53;2.50;99.90
10129;DHT22;5104;50.720;7.044;2022-11-14T03:05:20;2.50;99.90
10129;DHT22;5104;50.720;7.044;2022-11-14T03:07:47;2.40;99.90
10129;DHT22;5104;50.720;7.044;2022-11-14T03:10:13;2.30;99.90
10129;DHT22;5104;50.720;7.044;2022-11-14T03:12:42;2.30;99.90
10129;DHT22;5104;50.720;7.044;2022-11-14T03:15:09;2.20;99.90
10129;DHT22;5104;50.720;7.044;2022-11-14T03:17:39;2.20;99.90
10129;DHT22;5104;50.720;7.044;2022-11-14T03:20:07;2.20;99.90
10129;DHT22;5104;50.720;7.044;2022-11-14T03:22:34;2.20;99.90
10129;DHT22;5104;50.720;7.044;2022-11-14T03:25:01;2.20;99.90
10129;DHT22;5104;50.720;7.044;2022-11-14T03:27:28;2.20;99.90
10129;DHT22;5104;50.720;7.044;2022-11-14T03:29:56;2.30;99.90
10129;DHT22;5104;50.720;7.044;2022-11-14T03:32:23;2.40;99.90
10129;DHT22;5104;50.720;7.044;2022-11-14T03:34:50;2.40;99.90
10129;DHT22;5104;50.720;7.044;2022-11-14T03:37:17;2.30;99.90
10129;DHT22;5104;50.720;7.044;2022-11-14T03:39:44;2.40;99.90
10129;DHT22;5104;50.720;7.044;2022-11-14T03:42:11;2.40;99.90
10129;DHT22;5104;50.720;7.044;2022-11-14T03:44:38;2.30;99.90
10129;DHT22;5104;50.720;7.044;2022-11-14T03:47:06;2.20;99.90
10129;DHT22;5104;50.720;7.044;2022-11-14T03:49:33;2.20;99.90
10129;DHT22;5104;50.720;7.044;2022-11-14T03:52:00;2.10;99.90
10129;DHT22;5104;50.720;7.044;2022-11-14T03:54:26;2.20;99.90
10129;DHT22;5104;50.720;7.044;2022-11-14T03:56:53;2.20;99.90
10129;DHT22;5104;50.720;7.044;2022-11-14T03:59:20;2.20;99.90
10129;DHT22;5104;50.720;7.044;2022-11-14T04:01:47;2.20;99.90
10129;DHT22;5104;50.720;7.044;2022-11-14T04:04:16;2.20;99.90
10129;DHT22;5104;50.720;7.044;2022-11-14T04:06:46;2.10;99.90
10129;DHT22;5104;50.720;7.044;2022-11-14T04:09:13;2.00;99.90
10129;DHT22;5104;50.720;7.044;2022-11-14T04:11:40;2.00;99.90
10129;DHT22;5104;50.720;7.044;2022-11-14T04:14:07;2.00;99.90
10129;DHT22;5104;50.720;7.044;2022-11-14T04:16:35;2.00;99.90
10129;DHT22;5104;50.720;7.044;2022-11-14T04:19:01;2.00;99.90
10129;DHT22;5104;50.720;7.044;2022-11-14T04:21:30;2.00;99.90
10129;DHT22;5104;50.720;7.044;2022-11-14T04:23:56;2.10;99.90
10129;DHT22;5104;50.720;7.044;2022-11-14T04:26:23;2.00;99.90
10129;DHT22;5104;50.720;7.044;2022-11-14T04:28:50;2.00;99.90
10129;DHT22;5104;50.720;7.044;2022-11-14T04:31:17;2.00;99.90
10129;DHT22;5104;50.720;7.044;2022-11-14T04:33:44;1.90;99.90
10129;DHT22;5104;50.720;7.044;2022-11-14T04:36:10;1.80;99.90
10129;DHT22;5104;50.720;7.044;2022-11-14T04:38:39;1.90;99.90
10129;DHT22;5104;50.720;7.044;2022-11-14T04:41:06;1.90;99.90
10129;DHT22;5104;50.720;7.044;2022-11-14T04:43:33;1.90;99.90
10129;DHT22;5104;50.720;7.044;2022-11-14T04:46:00;1.90;99.90
10129;DHT22;5104;50.720;7.044;2022-11-14T04:48:27;2.00;99.90
10129;DHT22;5104;50.720;7.044;2022-11-14T04:50:54;2.00;99.90
10129;DHT22;5104;50.720;7.044;2022-11-14T04:53:21;2.00;99.90
10129;DHT22;5104;50.720;7.044;2022-11-14T04:55:49;2.10;99.90
10129;DHT22;5104;50.720;7.044;2022-11-14T04:58:16;2.10;99.90
10129;DHT22;5104;50.720;7.044;2022-11-14T05:00:43;2.00;99.90
10129;DHT22;5104;50.720;7.044;2022-11-14T05:03:09;2.00;99.90
10129;DHT22;5104;50.720;7.044;2022-11-14T05:05:36;2.10;99.90
10129;DHT22;5104;50.720;7.044;2022-11-14T05:08:03;2.10;99.90
10129;DHT22;5104;50.720;7.044;2022-11-14T05:10:31;2.10;99.90
10129;DHT22;5104;50.720;7.044;2022-11-14T05:12:59;2.10;99.90
10129;DHT22;5104;50.720;7.044;2022-11-14T05:15:26;2.20;99.90
10129;DHT22;5104;50.720;7.044;2022-11-14T05:17:52;2.20;99.90
10129;DHT22;5104;50.720;7.044;2022-11-14T05:20:19;2.20;99.90
10129;DHT22;5104;50.720;7.044;2022-11-14T05:22:46;2.20;99.90
10129;DHT22;5104;50.720;7.044;2022-11-14T05:25:13;2.10;99.90
10129;DHT22;5104;50.720;7.044;2022-11-14T05:27:40;2.10;99.90
10129;DHT22;5104;50.720;7.044;2022-11-14T05:30:10;2.10;99.90
10129;DHT22;5104;50.720;7.044;2022-11-14T05:32:37;2.10;99.90
10129;DHT22;5104;50.720;7.044;2022-11-14T05:35:04;2.10;99.90
10129;DHT22;5104;50.720;7.044;2022-11-14T05:37:33;2.00;99.90
10129;DHT22;5104;50.720;7.044;2022-11-14T05:40:00;2.00;99.90
10129;DHT22;5104;50.720;7.044;2022-11-14T05:42:27;2.00;99.90
10129;DHT22;5104;50.720;7.044;2022-11-14T05:44:54;2.00;99.90
10129;DHT22;5104;50.720;7.044;2022-11-14T05:47:22;2.00;99.90
10129;DHT22;5104;50.720;7.044;2022-11-14T05:49:49;2.00;99.90
10129;DHT22;5104;50.720;7.044;2022-11-14T05:52:16;2.00;99.90
10129;DHT22;5104;50.720;7.044;2022-11-14T05:54:43;2.00;99.90
10129;DHT22;5104;50.720;7.044;2022-11-14T05:57:10;2.00;99.90
10129;DHT22;5104;50.720;7.044;2022-11-14T05:59:37;2.10;99.90
10129;DHT22;5104;50.720;7.044;2022-11-14T06:02:04;2.10;99.90
10129;DHT22;5104;50.720;7.044;2022-11-14T06:04:32;2.30;99.90
10129;DHT22;5104;50.720;7.044;2022-11-14T06:06:59;2.60;99.90
10129;DHT22;5104;50.720;7.044;2022-11-14T06:09:26;2.80;99.90
10129;DHT22;5104;50.720;7.044;2022-11-14T06:11:53;3.00;99.90
10129;DHT22;5104;50.720;7.044;2022-11-14T06:14:20;3.30;99.90
10129;DHT22;5104;50.720;7.044;2022-11-14T06:16:46;3.40;99.90
10129;DHT22;5104;50.720;7.044;2022-11-14T06:19:13;3.60;99.90
10129;DHT22;5104;50.720;7.044;2022-11-14T06:21:42;3.60;99.90
10129;DHT22;5104;50.720;7.044;2022-11-14T06:24:09;3.70;99.90
10129;DHT22;5104;50.720;7.044;2022-11-14T06:26:36;3.80;99.90
10129;DHT22;5104;50.720;7.044;2022-11-14T06:29:03;3.90;99.90
10129;DHT22;5104;50.720;7.044;2022-11-14T06:31:30;4.00;99.90
10129;DHT22;5104;50.720;7.044;2022-11-14T06:33:57;4.00;99.90
10129;DHT22;5104;50.720;7.044;2022-11-14T06:36:24;4.00;99.90
10129;DHT22;5104;50.720;7.044;2022-11-14T06:38:52;4.10;99.90
10129;DHT22;5104;50.720;7.044;2022-11-14T06:41:20;4.20;99.90
10129;DHT22;5104;50.720;7.044;2022-11-14T06:43:49;4.20;99.90
10129;DHT22;5104;50.720;7.044;2022-11-14T06:46:19;4.10;99.90
10129;DHT22;5104;50.720;7.044;2022-11-14T06:48:47;4.20;99.90
10129;DHT22;5104;50.720;7.044;2022-11-14T06:51:15;4.20;99.90
10129;DHT22;5104;50.720;7.044;2022-11-14T06:53:43;4.30;99.90
10129;DHT22;5104;50.720;7.044;2022-11-14T06:56:13;4.40;99.90
10129;DHT22;5104;50.720;7.044;2022-11-14T06:58:41;4.50;99.90
10129;DHT22;5104;50.720;7.044;2022-11-14T07:01:11;4.60;99.90
10129;DHT22;5104;50.720;7.044;2022-11-14T07:03:38;4.70;99.90
10129;DHT22;5104;50.720;7.044;2022-11-14T07:06:06;4.80;99.90
10129;DHT22;5104;50.720;7.044;2022-11-14T07:08:33;5.00;99.90
10129;DHT22;5104;50.720;7.044;2022-11-14T07:11:01;5.20;99.90
10129;DHT22;5104;50.720;7.044;2022-11-14T07:13:31;5.40;99.90
10129;DHT22;5104;50.720;7.044;2022-11-14T07:15:59;5.60;99.90
10129;DHT22;5104;50.720;7.044;2022-11-14T07:18:28;5.70;99.90
10129;DHT22;5104;50.720;7.044;2022-11-14T07:20:59;5.90;99.90
10129;DHT22;5104;50.720;7.044;2022-11-14T07:23:26;6.00;99.90
10129;DHT22;5104;50.720;7.044;2022-11-14T07:25:53;6.20;99.90
10129;DHT22;5104;50.720;7.044;2022-11-14T07:28:20;6.40;99.90
10129;DHT22;5104;50.720;7.044;2022-11-14T07:30:48;6.50;99.90
10129;DHT22;5104;50.720;7.044;2022-11-14T07:33:15;6.50;99.90
10129;DHT22;5104;50.720;7.044;2022-11-14T07:35:42;6.50;99.90
10129;DHT22;5104;50.720;7.044;2022-11-14T07:38:09;6.50;99.90
10129;DHT22;5104;50.720;7.044;2022-11-14T07:40:35;6.50;99.90
10129;DHT22;5104;50.720;7.044;2022-11-14T07:43:02;6.50;99.90
10129;DHT22;5104;50.720;7.044;2022-11-14T07:45:29;6.50;99.90
10129;DHT22;5104;50.720;7.044;2022-11-14T07:47:59;6.50;99.90
10129;DHT22;5104;50.720;7.044;2022-11-14T07:50:28;6.60;99.90
10129;DHT22;5104;50.720;7.044;2022-11-14T07:52:56;6.50;99.90
10129;DHT22;5104;50.720;7.044;2022-11-14T07:55:23;6.60;99.90
10129;DHT22;5104;50.720;7.044;2022-11-14T07:57:54;6.60;99.90
10129;DHT22;5104;50.720;7.044;2022-11-14T08:00:24;6.70;99.90
10129;DHT22;5104;50.720;7.044;2022-11-14T08:02:51;6.70;99.90
10129;DHT22;5104;50.720;7.044;2022-11-14T08:05:19;6.70;99.90
10129;DHT22;5104;50.720;7.044;2022-11-14T08:07:49;6.70;99.90
10129;DHT22;5104;50.720;7.044;2022-11-14T08:10:16;6.70;99.90
10129;DHT22;5104;50.720;7.044;2022-11-14T08:12:43;6.70;99.90
10129;DHT22;5104;50.720;7.044;2022-11-14T08:15:12;6.70;99.90
10129;DHT22;5104;50.720;7.044;2022-11-14T08:17:39;6.80;99.90
10129;DHT22;5104;50.720;7.044;2022-11-14T08:20:08;6.80;99.90
10129;DHT22;5104;50.720;7.044;2022-11-14T08:22:36;6.80;99.90
10129;DHT22;5104;50.720;7.044;2022-11-14T08:25:04;6.90;99.90
10129;DHT22;5104;50.720;7.044;2022-11-14T08:27:31;6.90;99.90
10129;DHT22;5104;50.720;7.044;2022-11-14T08:29:58;6.90;99.90
10129;DHT22;5104;50.720;7.044;2022-11-14T08:32:25;7.00;99.90
10129;DHT22;5104;50.720;7.044;2022-11-14T08:34:51;7.10;99.90
10129;DHT22;5104;50.720;7.044;2022-11-14T08:37:18;7.00;99.90
10129;DHT22;5104;50.720;7.044;2022-11-14T08:39:46;7.00;99.90
10129;DHT22;5104;50.720;7.044;2022-11-14T08:42:13;7.10;99.90
10129;DHT22;5104;50.720;7.044;2022-11-14T08:44:40;7.00;99.90
10129;DHT22;5104;50.720;7.044;2022-11-14T08:47:07;7.00;99.90
10129;DHT22;5104;50.720;7.044;2022-11-14T08:49:34;7.00;99.90
10129;DHT22;5104;50.720;7.044;2022-11-14T08:52:01;7.00;99.90
10129;DHT22;5104;50.720;7.044;2022-11-14T08:54:28;7.10;99.90
10129;DHT22;5104;50.720;7.044;2022-11-14T08:56:56;7.10;99.90
10129;DHT22;5104;50.720;7.044;2022-11-14T08:59:23;7.10;99.90
10129;DHT22;5104;50.720;7.044;2022-11-14T09:01:49;7.10;99.90
10129;DHT22;5104;50.720;7.044;2022-11-14T09:04:16;7.10;99.90
10129;DHT22;5104;50.720;7.044;2022-11-14T09:06:43;7.20;99.90
10129;DHT22;5104;50.720;7.044;2022-11-14T09:09:11;7.20;99.90
10129;DHT22;5104;50.720;7.044;2022-11-14T09:11:38;7.20;99.90
10129;DHT22;5104;50.720;7.044;2022-11-14T09:14:06;7.30;99.90
10129;DHT22;5104;50.720;7.044;2022-11-14T09:16:33;7.30;99.90
10129;DHT22;5104;50.720;7.044;2022-11-14T09:19:01;7.50;99.90
10129;DHT22;5104;50.720;7.044;2022-11-14T09:21:27;7.60;99.90
10129;DHT22;5104;50.720;7.044;2022-11-14T09:23:54;7.70;99.90
10129;DHT22;5104;50.720;7.044;2022-11-14T09:26:21;7.60;99.90
10129;DHT22;5104;50.720;7.044;2022-11-14T09:28:48;7.50;99.90
10129;DHT22;5104;50.720;7.044;2022-11-14T09:31:16;7.60;99.90
10129;DHT22;5104;50.720;7.044;2022-11-14T09:33:43;7.50;99.90
10129;DHT22;5104;50.720;7.044;2022-11-14T09:36:11;7.60;99.90
10129;DHT22;5104;50.720;7.044;2022-11-14T09:38:40;7.70;99.90
10129;DHT22;5104;50.720;7.044;2022-11-14T09:41:20;7.70;99.90
10129;DHT22;5104;50.720;7.044;2022-11-14T09:44:17;7.80;99.90
10129;DHT22;5104;50.720;7.044;2022-11-14T09:46:53;7.70;99.90
10129;DHT22;5104;50.720;7.044;2022-11-14T09:49:25;7.70;99.90
10129;DHT22;5104;50.720;7.044;2022-11-14T09:51:57;7.80;99.90
10129;DHT22;5104;50.720;7.044;2022-11-14T09:54:28;7.70;99.90
10129;DHT22;5104;50.720;7.044;2022-11-14T09:56:59;7.70;99.90
10129;DHT22;5104;50.720;7.044;2022-11-14T09:59:26;7.90;99.90
10129;DHT22;5104;50.720;7.044;2022-11-14T10:02:00;7.70;99.90
10129;DHT22;5104;50.720;7.044;2022-11-14T10:04:42;7.80;99.90
10129;DHT22;5104;50.720;7.044;2022-11-14T10:07:21;7.90;99.90
10129;DHT22;5104;50.720;7.044;2022-11-14T10:09:58;8.00;99.90
10129;DHT22;5104;50.720;7.044;2022-11-14T10:12:33;8.30;99.90
10129;DHT22;5104;50.720;7.044;2022-11-14T10:15:12;8.20;99.90
10129;DHT22;5104;50.720;7.044;2022-11-14T10:17:55;8.10;99.90
10129;DHT22;5104;50.720;7.044;2022-11-14T10:20:29;8.20;99.90
10129;DHT22;5104;50.720;7.044;2022-11-14T10:23:10;8.20;99.90
10129;DHT22;5104;50.720;7.044;2022-11-14T10:25:49;8.20;99.90
10129;DHT22;5104;50.720;7.044;2022-11-14T10:28:37;8.20;99.90
10129;DHT22;5104;50.720;7.044;2022-11-14T10:31:13;8.10;99.90
10129;DHT22;5104;50.720;7.044;2022-11-14T10:33:51;8.20;99.90
10129;DHT22;5104;50.720;7.044;2022-11-14T10:36:31;8.20;99.90
10129;DHT22;5104;50.720;7.044;2022-11-14T10:39:10;8.10;99.90
10129;DHT22;5104;50.720;7.044;2022-11-14T10:41:39;8.20;99.90
10129;DHT22;5104;50.720;7.044;2022-11-14T10:44:10;8.40;99.90
10129;DHT22;5104;50.720;7.044;2022-11-14T10:46:42;8.40;99.90
10129;DHT22;5104;50.720;7.044;2022-11-14T10:49:19;8.40;99.90
10129;DHT22;5104;50.720;7.044;2022-11-14T10:51:49;8.30;99.90
10129;DHT22;5104;50.720;7.044;2022-11-14T10:54:21;8.40;99.90
10129;DHT22;5104;50.720;7.044;2022-11-14T10:56:52;8.30;99.90
10129;DHT22;5104;50.720;7.044;2022-11-14T10:59:19;8.40;99.90
10129;DHT22;5104;50.720;7.044;2022-11-14T11:01:53;8.30;99.90
10129;DHT22;5104;50.720;7.044;2022-11-14T11:04:25;8.40;99.90
10129;DHT22;5104;50.720;7.044;2022-11-14T11:06:53;8.50;99.90
10129;DHT22;5104;50.720;7.044;2022-11-14T11:09:22;8.50;99.90
10129;DHT22;5104;50.720;7.044;2022-11-14T11:12:08;8.40;99.90
10129;DHT22;5104;50.720;7.044;2022-11-14T11:14:41;8.40;99.90
10129;DHT22;5104;50.720;7.044;2022-11-14T11:17:19;8.30;99.90
10129;DHT22;5104;50.720;7.044;2022-11-14T11:19:47;8.20;99.90
10129;DHT22;5104;50.720;7.044;2022-11-14T11:22:27;8.20;99.90
10129;DHT22;5104;50.720;7.044;2022-11-14T11:24:54;8.20;99.90
10129;DHT22;5104;50.720;7.044;2022-11-14T11:27:23;8.30;99.90
10129;DHT22;5104;50.720;7.044;2022-11-14T11:30:07;8.30;99.90
10129;DHT22;5104;50.720;7.044;2022-11-14T11:32:34;8.30;99.90
10129;DHT22;5104;50.720;7.044;2022-11-14T11:35:10;8.30;99.90
10129;DHT22;5104;50.720;7.044;2022-11-14T11:37:43;8.40;99.90
10129;DHT22;5104;50.720;7.044;2022-11-14T11:40:22;8.40;99.90
10129;DHT22;5104;50.720;7.044;2022-11-14T11:42:56;8.50;99.90
10129;DHT22;5104;50.720;7.044;2022-11-14T11:45:24;8.60;99.90
10129;DHT22;5104;50.720;7.044;2022-11-14T11:47:56;8.60;99.90
10129;DHT22;5104;50.720;7.044;2022-11-14T11:50:25;8.70;99.90
10129;DHT22;5104;50.720;7.044;2022-11-14T11:53:04;8.80;99.90
10129;DHT22;5104;50.720;7.044;2022-11-14T11:55:40;9.00;99.90
10129;DHT22;5104;50.720;7.044;2022-11-14T11:58:14;9.10;99.90
10129;DHT22;5104;50.720;7.044;2022-11-14T12:00:42;9.10;99.90
10129;DHT22;5104;50.720;7.044;2022-11-14T12:03:11;9.10;99.90
10129;DHT22;5104;50.720;7.044;2022-11-14T12:05:47;9.20;99.90
10129;DHT22;5104;50.720;7.044;2022-11-14T12:08:20;9.40;99.90
10129;DHT22;5104;50.720;7.044;2022-11-14T12:10:53;9.30;99.90
10129;DHT22;5104;50.720;7.044;2022-11-14T12:13:39;9.10;99.90
10129;DHT22;5104;50.720;7.044;2022-11-14T12:16:26;9.10;99.90
10129;DHT22;5104;50.720;7.044;2022-11-14T12:22:41;9.10;99.90
10129;DHT22;5104;50.720;7.044;2022-11-14T12:25:35;8.80;99.90
10129;DHT22;5104;50.720;7.044;2022-11-14T12:28:23;8.80;99.90
10129;DHT22;5104;50.720;7.044;2022-11-14T12:30:56;8.80;99.90
10129;DHT22;5104;50.720;7.044;2022-11-14T12:33:27;8.80;99.90
10129;DHT22;5104;50.720;7.044;2022-11-14T12:35:56;8.80;99.90
10129;DHT22;5104;50.720;7.044;2022-11-14T12:38:28;8.80;99.90
10129;DHT22;5104;50.720;7.044;2022-11-14T12:40:59;8.80;99.90
10129;DHT22;5104;50.720;7.044;2022-11-14T12:43:31;8.70;99.90
10129;DHT22;5104;50.720;7.044;2022-11-14T12:46:01;8.60;99.90
10129;DHT22;5104;50.720;7.044;2022-11-14T12:48:33;8.60;99.90
10129;DHT22;5104;50.720;7.044;2022-11-14T12:51:02;8.60;99.90
10129;DHT22;5104;50.720;7.044;2022-11-14T12:53:43;8.60;99.90
10129;DHT22;5104;50.720;7.044;2022-11-14T13:02:38;8.60;99.90
10129;DHT22;5104;50.720;7.044;2022-11-14T13:05:32;8.60;99.90
10129;DHT22;5104;50.720;7.044;2022-11-14T13:08:14;8.70;99.90
10129;DHT22;5104;50.720;7.044;2022-11-14T13:10:45;8.70;99.90
10129;DHT22;5104;50.720;7.044;2022-11-14T13:13:15;8.70;99.90
10129;DHT22;5104;50.720;7.044;2022-11-14T13:16:01;8.60;99.90
10129;DHT22;5104;50.720;7.044;2022-11-14T13:18:55;8.60;99.90
10129;DHT22;5104;50.720;7.044;2022-11-14T13:22:32;8.60;99.90
10129;DHT22;5104;50.720;7.044;2022-11-14T13:25:16;8.70;99.90
10129;DHT22;5104;50.720;7.044;2022-11-14T13:27:44;8.80;99.90
10129;DHT22;5104;50.720;7.044;2022-11-14T13:30:11;8.80;99.90
10129;DHT22;5104;50.720;7.044;2022-11-14T13:33:02;8.80;99.90
10129;DHT22;5104;50.720;7.044;2022-11-14T13:35:49;8.90;99.90
10129;DHT22;5104;50.720;7.044;2022-11-14T13:48:30;8.70;99.90
10129;DHT22;5104;50.720;7.044;2022-11-14T13:51:06;8.70;99.90
10129;DHT22;5104;50.720;7.044;2022-11-14T13:53:39;8.70;99.90
10129;DHT22;5104;50.720;7.044;2022-11-14T13:56:15;8.70;99.90
10129;DHT22;5104;50.720;7.044;2022-11-14T13:58:58;8.70;99.90
10129;DHT22;5104;50.720;7.044;2022-11-14T14:01:44;8.70;99.90
10129;DHT22;5104;50.720;7.044;2022-11-14T14:04:27;8.70;99.90
10129;DHT22;5104;50.720;7.044;2022-11-14T14:07:04;8.70;99.90
10129;DHT22;5104;50.720;7.044;2022-11-14T14:09:37;8.70;99.90
10129;DHT22;5104;50.720;7.044;2022-11-14T14:12:23;8.70;99.90
10129;DHT22;5104;50.720;7.044;2022-11-14T14:15:08;8.70;99.90
10129;DHT22;5104;50.720;7.044;2022-11-14T14:17:48;8.70;99.90
10129;DHT22;5104;50.720;7.044;2022-11-14T14:20:34;8.80;99.90
10129;DHT22;5104;50.720;7.044;2022-11-14T14:23:14;8.80;99.90
10129;DHT22;5104;50.720;7.044;2022-11-14T14:25:58;8.80;99.90
10129;DHT22;5104;50.720;7.044;2022-11-14T14:28:34;8.70;99.90
10129;DHT22;5104;50.720;7.044;2022-11-14T14:31:14;8.70;99.90
10129;DHT22;5104;50.720;7.044;2022-11-14T14:33:43;8.70;99.90
10129;DHT22;5104;50.720;7.044;2022-11-14T14:36:22;8.70;99.90
10129;DHT22;5104;50.720;7.044;2022-11-14T14:38:51;8.70;99.90
10129;DHT22;5104;50.720;7.044;2022-11-14T14:41:32;8.70;99.90
10129;DHT22;5104;50.720;7.044;2022-11-14T14:44:00;8.80;99.90
10129;DHT22;5104;50.720;7.044;2022-11-14T14:46:30;8.70;99.90
10129;DHT22;5104;50.720;7.044;2022-11-14T14:49:01;8.80;99.90
10129;DHT22;5104;50.720;7.044;2022-11-14T14:51:30;8.80;99.90
10129;DHT22;5104;50.720;7.044;2022-11-14T14:53:57;8.80;99.90
10129;DHT22;5104;50.720;7.044;2022-11-14T14:56:25;8.80;99.90
10129;DHT22;5104;50.720;7.044;2022-11-14T14:58:52;8.80;99.90
10129;DHT22;5104;50.720;7.044;2022-11-14T15:01:22;8.80;99.90
10129;DHT22;5104;50.720;7.044;2022-11-14T15:03:57;8.80;99.90
10129;DHT22;5104;50.720;7.044;2022-11-14T15:06:31;8.80;99.90
10129;DHT22;5104;50.720;7.044;2022-11-14T15:09:00;8.80;99.90
10129;DHT22;5104;50.720;7.044;2022-11-14T15:11:28;8.80;99.90
10129;DHT22;5104;50.720;7.044;2022-11-14T15:13:57;8.80;99.90
10129;DHT22;5104;50.720;7.044;2022-11-14T15:16:25;8.70;99.90
10129;DHT22;5104;50.720;7.044;2022-11-14T15:18:54;8.70;99.90
10129;DHT22;5104;50.720;7.044;2022-11-14T15:21:24;8.70;99.90
10129;DHT22;5104;50.720;7.044;2022-11-14T15:24:02;8.60;99.90
10129;DHT22;5104;50.720;7.044;2022-11-14T15:26:31;8.60;99.90
10129;DHT22;5104;50.720;7.044;2022-11-14T15:29:15;8.60;99.90
10129;DHT22;5104;50.720;7.044;2022-11-14T15:31:45;8.60;99.90
10129;DHT22;5104;50.720;7.044;2022-11-14T15:34:24;8.60;99.90
10129;DHT22;5104;50.720;7.044;2022-11-14T15:37:21;8.60;99.90
10129;DHT22;5104;50.720;7.044;2022-11-14T15:39:50;8.60;99.90
10129;DHT22;5104;50.720;7.044;2022-11-14T15:42:19;8.60;99.90
10129;DHT22;5104;50.720;7.044;2022-11-14T15:44:57;8.70;99.90
10129;DHT22;5104;50.720;7.044;2022-11-14T15:47:35;8.70;99.90
10129;DHT22;5104;50.720;7.044;2022-11-14T15:50:21;8.70;99.90
10129;DHT22;5104;50.720;7.044;2022-11-14T15:52:54;8.70;99.90
10129;DHT22;5104;50.720;7.044;2022-11-14T15:55:24;8.70;99.90
10129;DHT22;5104;50.720;7.044;2022-11-14T15:57:51;8.70;99.90
10129;DHT22;5104;50.720;7.044;2022-11-14T16:00:18;8.70;99.90
10129;DHT22;5104;50.720;7.044;2022-11-14T16:02:48;8.70;99.90
10129;DHT22;5104;50.720;7.044;2022-11-14T16:05:20;8.70;99.90
10129;DHT22;5104;50.720;7.044;2022-11-14T16:07:49;8.70;99.90
10129;DHT22;5104;50.720;7.044;2022-11-14T16:10:18;8.70;99.90
10129;DHT22;5104;50.720;7.044;2022-11-14T16:12:47;8.70;99.90
10129;DHT22;5104;50.720;7.044;2022-11-14T16:15:14;8.70;99.90
10129;DHT22;5104;50.720;7.044;2022-11-14T16:17:43;8.80;99.90
10129;DHT22;5104;50.720;7.044;2022-11-14T16:20:13;8.80;99.90
10129;DHT22;5104;50.720;7.044;2022-11-14T16:22:42;8.80;99.90
10129;DHT22;5104;50.720;7.044;2022-11-14T16:25:13;8.80;99.90
10129;DHT22;5104;50.720;7.044;2022-11-14T16:27:42;8.80;99.90
10129;DHT22;5104;50.720;7.044;2022-11-14T16:30:12;8.80;99.90
10129;DHT22;5104;50.720;7.044;2022-11-14T16:32:39;8.80;99.90
10129;DHT22;5104;50.720;7.044;2022-11-14T16:35:08;8.80;99.90
10129;DHT22;5104;50.720;7.044;2022-11-14T16:37:37;8.80;99.90
10129;DHT22;5104;50.720;7.044;2022-11-14T16:40:05;8.80;99.90
10129;DHT22;5104;50.720;7.044;2022-11-14T16:42:33;8.80;99.90